Hoxeyville, Michigan
Current Conditions -  °F | °C
As of 4:34 AM on Thursday 23 Oct 2014 (Local Time) from KCAD Reporting Station
Haze Haze  
Wind Chill: -5°   Ceiling: 500
Heat Index: -5°   Visibility: 0.75mi
Dew Point: -5°   Wind: 0mph
Humidity: 96%   Direction: NA
Pressure: 30.23"   Gusts: NA
Location:  44.2433°N, 85.5328°W
Report Text: KCAD 230834Z AUTO 00000KT 3/4SM BR VV005 M04/M05 A3023 RMK AO2 T10461052
Loading
Personal Weather Stations






























Interactive Weather Map
Tropical Storm Tracking
New forecast layout! Learn more

10-Day Weather Forecast

Advertisements
Track Severe Weather on mobile